• Join FlightAware (Why Join?)
  • Login
  • US Flag 
06:26AM EST


 

Airport Tracker/Info


-or-


 

Live Flight TrackerFlight Track Log ✈ DAL174 ✈ 16-Jul-2013 ✈ KATL - EHAM / AMS

Flight Track Log - Related Links

Times and Time Zones

All times are in EDT time to prevent confusion due to time zone crossing. See the DAL174 flight status page for this flight to view local times or setup timezone preferences in your user account.

Time Position Orientation Groundspeed Altitude Reporting Facility
EDT Latitude Longitude Course Direction KTS MPH feet Rate Location/Type
03:20PM 33.6333 -84.3833 53° Northeast 184 212 2,300  Level Atlanta TRACON
03:21PM 33.6333 -84.3167 90° East 238 274 3,900 2,220 Climbing Atlanta TRACON
03:22PM 33.7523 -83.9741 54° Northeast  Level FlightAware Approximate
03:23PM 33.8285 -83.8471 54° Northeast  Level FlightAware Approximate
03:23PM 33.6333 -84.1333 90° East 276 318 9,000  Level Atlanta TRACON
03:24PM 33.9102 -83.7253 48° Northeast  Level FlightAware Approximate
03:24PM 33.6689 -84.0539 62° Northeast 295 339 10,600  Level Atlanta Center
03:25PM 33.9891 -83.6005 53° Northeast  Level FlightAware Approximate
03:25PM 33.7317 -83.9739 47° Northeast 302 348 12,500  Level Atlanta Center
03:26PM 33.8003 -83.8864 47° Northeast 331 381 14,100 1,800 Climbing Atlanta Center
03:27PM 33.8733 -83.7911 47° Northeast 363 418 16,200 1,860 Climbing Atlanta Center
03:28PM 33.9483 -83.6883 49° Northeast 389 448 17,900 1,800 Climbing Atlanta Center
03:29PM 34.0167 -83.5803 53° Northeast 404 465 19,800 1,740 Climbing Atlanta Center
03:30PM 34.0850 -83.4694 53° Northeast 410 472 21,400 1,500 Climbing Atlanta Center
03:31PM 34.1575 -83.3533 53° Northeast 425 489 22,800 1,440 Climbing Atlanta Center
03:32PM 34.2383 -83.2272 52° Northeast 425 489 24,300 1,440 Climbing Atlanta Center
03:33PM 34.3144 -83.1058 53° Northeast 440 506 25,700 1,380 Climbing Atlanta Center
03:34PM 34.3908 -82.9842 53° Northeast 449 517 27,100 1,500 Climbing Atlanta Center
03:35PM 34.4647 -82.8647 53° Northeast 449 517 28,800 1,500 Climbing Atlanta Center
03:36PM 34.5386 -82.7400 54° Northeast 449 517 30,200 1,080 Climbing Atlanta Center
03:37PM 34.6125 -82.6228 53° Northeast 442 509 31,000 360 Climbing Atlanta Center
03:38PM 34.6842 -82.5031 54° Northeast 437 503 31,000  Level Atlanta Center
03:39PM 34.7556 -82.3853 54° Northeast 437 503 31,000  Level Atlanta Center
03:40PM 34.8311 -82.2675 52° Northeast 442 509 31,000  Level Atlanta Center
03:41PM 34.9044 -82.1417 55° Northeast 442 509 31,000  Level Atlanta Center
03:42PM 34.9778 -82.0236 53° Northeast 442 509 31,000  Level Atlanta Center
03:43PM 35.0486 -81.9025 54° Northeast 442 509 31,000  Level Atlanta Center
03:44PM 35.1153 -81.7739 58° Northeast 442 509 31,000  Level Atlanta Center
03:45PM 35.1817 -81.6475 57° Northeast 442 509 31,000  Level Atlanta Center
03:46PM 35.2481 -81.5211 57° Northeast 444 511 31,000  Level Atlanta Center
03:47PM 35.3142 -81.3942 57° Northeast 444 511 31,000  Level Atlanta Center
03:48PM 35.3803 -81.2647 58° Northeast 444 511 31,000  Level Atlanta Center
03:49PM 35.4461 -81.1350 58° Northeast 444 511 31,000  Level Atlanta Center
03:50PM 35.5158 -81.0050 57° Northeast 444 511 31,000  Level Atlanta Center
03:51PM 35.5836 -80.8747 57° Northeast 444 511 31,000  Level Atlanta Center
03:52PM 35.6511 -80.7469 57° Northeast 444 511 31,000  Level Atlanta Center
03:53PM 35.7186 -80.6164 57° Northeast 444 511 31,000  Level Atlanta Center
03:54PM 35.7858 -80.4856 58° Northeast 444 511 31,000  Level Atlanta Center
03:55PM 35.8508 -80.3572 58° Northeast 444 511 31,000  Level Atlanta Center
03:56PM 35.9158 -80.2311 58° Northeast 444 511 31,000  Level Atlanta Center
03:58PM 36.0667 -79.9425 57° Northeast 447 514 31,000  Level Washington Center
03:59PM 36.1378 -79.8178 55° Northeast 433 498 31,000  Level Washington Center
04:00PM 36.2156 -79.6803 55° Northeast 433 498 31,100 420 Climbing Washington Center
04:01PM 36.2867 -79.5500 56° Northeast 438 504 31,900 660 Climbing Washington Center
04:02PM 36.3508 -79.4425 53° Northeast 438 504 32,500 540 Climbing Washington Center
04:03PM 36.4264 -79.2964 57° Northeast 438 504 33,000 240 Climbing Washington Center
04:04PM 36.4989 -79.1706 54° Northeast 449 517 33,000  Level Washington Center
04:05PM 36.5650 -79.0597 53° Northeast 449 517 33,000  Level Washington Center
04:06PM 36.6372 -78.9336 54° Northeast 449 517 33,000  Level Washington Center
04:07PM 36.7014 -78.8042 58° Northeast 443 510 33,000  Level Washington Center
04:08PM 36.7717 -78.6750 56° Northeast 443 510 33,000  Level Washington Center
04:09PM 36.8783 -78.5753 37° Northeast 443 510 33,000  Level Washington Center
04:10PM 36.9847 -78.4936 32° Northeast 443 510 33,000  Level Washington Center
04:11PM 37.0950 -78.4169 29° Northeast 443 510 33,000  Level Washington Center
04:12PM 37.1925 -78.3528 28° Northeast 443 510 33,000  Level Washington Center
04:13PM 37.3047 -78.2811 27° Northeast 443 510 33,000  Level Washington Center
04:14PM 37.4189 -78.2119 26° Northeast 437 503 33,000  Level Washington Center
04:15PM 37.5414 -78.1403 25° Northeast 437 503 33,000  Level Washington Center
04:16PM 37.6575 -78.0708 25° Northeast 437 503 33,000  Level Washington Center
04:17PM 37.7575 -77.9742 37° Northeast 448 516 33,000  Level Washington Center
04:18PM 37.8453 -77.8558 47° Northeast 448 516 33,000  Level Washington Center
04:19PM 37.9308 -77.7375 47° Northeast 448 516 33,000  Level Washington Center
04:20PM 38.0164 -77.6133 49° Northeast 453 521 33,000  Level Washington Center
04:21PM 38.0683 -77.5067 58° Northeast 458 527 33,000  Level Washington Center
04:22PM 38.1522 -77.3425 57° Northeast 453 521 33,000  Level Washington Center
04:23PM 38.2228 -77.2067 56° Northeast 453 521 33,000  Level Washington Center
04:24PM 38.2933 -77.0706 57° Northeast 458 527 33,000  Level Washington Center
04:25PM 38.3617 -76.9394 56° Northeast 453 521 33,000  Level Washington Center
04:26PM 38.4403 -76.8111 52° Northeast 453 521 33,000  Level Washington Center
04:27PM 38.5308 -76.6983 44° Northeast 453 521 33,000  Level Washington Center
04:28PM 38.6175 -76.5856 45° Northeast 448 516 33,000  Level Washington Center
04:29PM 38.7078 -76.4750 44° Northeast 443 510 33,000  Level Washington Center
04:30PM 38.7983 -76.3561 46° Northeast 443 510 33,000  Level Washington Center
04:31PM 38.8867 -76.2422 45° Northeast 448 516 33,000  Level Washington Center
04:32PM 38.9789 -76.1256 45° Northeast 448 516 33,000  Level Washington Center
04:33PM 39.0711 -76.0114 44° Northeast 453 521 33,000  Level Washington Center
04:34PM 39.1589 -75.8942 46° Northeast 453 521 33,000  Level Washington Center
04:35PM 39.2508 -75.7739 45° Northeast 453 521 33,000  Level Washington Center
04:36PM 39.3386 -75.6586 45° Northeast 458 527 33,000  Level Washington Center
04:37PM 39.4303 -75.5378 45° Northeast 458 527 33,000  Level Washington Center
04:38PM 39.5197 -75.4194 46° Northeast 458 527 33,000  Level Washington Center
04:39PM 39.6111 -75.2981 46° Northeast 458 527 33,000  Level Washington Center
04:41PM 39.7636 -75.0864 47° Northeast 472 543 33,000  Level New York Center
04:42PM 39.8622 -74.9544 46° Northeast 472 543 33,000  Level New York Center
04:43PM 39.9319 -74.8639 45° Northeast 460 529 33,000  Level New York Center
04:44PM 40.0369 -74.7211 46° Northeast 460 529 33,000  Level New York Center
04:45PM 40.1222 -74.5983 48° Northeast 460 529 33,000  Level New York Center
04:46PM 40.1944 -74.4964 47° Northeast 465 535 33,000  Level New York Center
04:47PM 40.3367 -74.2858 48° Northeast 482 555 33,000  Level Boston Center
04:48PM 40.4219 -74.1628 48° Northeast 471 542 33,000  Level Boston Center
04:49PM 40.5094 -74.0369 48° Northeast 466 536 33,000  Level Boston Center
04:50PM 40.5858 -73.9322 46° Northeast 459 528 33,000  Level Boston Center
04:51PM 40.6897 -73.7811 48° Northeast 459 528 33,000  Level Boston Center
04:52PM 40.7642 -73.6622 50° Northeast 464 534 33,000  Level Boston Center
04:53PM 40.8486 -73.5347 49° Northeast 464 534 33,000  Level Boston Center
04:54PM 40.9333 -73.4072 49° Northeast 459 528 33,000  Level Boston Center
04:55PM 41.0261 -73.2711 48° Northeast 454 522 33,000  Level Boston Center
04:56PM 41.1103 -73.1453 48° Northeast 454 522 33,000  Level Boston Center
04:57PM 41.1986 -73.0167 48° Northeast 454 522 33,000  Level Boston Center
04:58PM 41.2783 -72.8958 49° Northeast 463 533 33,000  Level Boston Center
04:59PM 41.3619 -72.7664 49° Northeast 469 540 33,000  Level Boston Center
05:00PM 41.4478 -72.6339 49° Northeast 469 540 33,000  Level Boston Center
05:01PM 41.5231 -72.4928 54° Northeast 469 540 33,000  Level Boston Center
05:02PM 41.5792 -72.3208 66° East 454 522 33,000  Level Boston Center
05:03PM 41.6311 -72.1567 67° East 460 529 33,000  Level Boston Center
05:04PM 41.6806 -71.9953 68° East 467 537 33,000  Level Boston Center
05:05PM 41.7319 -71.8336 67° East 472 543 33,000  Level Boston Center
05:07PM 41.7850 -71.6689 67° East 472 543 33,000  Level Boston Center
05:08PM 41.8483 -71.4786 66° East 472 543 33,000  Level Boston Center
05:09PM 41.9008 -71.3161 66° East 472 543 33,000  Level Boston Center
05:10PM 41.9533 -71.1475 67° East 477 549 33,000  Level Boston Center
05:11PM 42.0033 -70.9844 68° East 477 549 33,000  Level Boston Center
05:12PM 42.0492 -70.8297 68° East 485 558 33,000  Level Boston Center
05:13PM 42.0989 -70.6661 68° East 480 552 33,000  Level Boston Center
05:14PM 42.1425 -70.5333 66° East 480 552 33,000  Level Boston Center
05:15PM 42.2017 -70.3325 68° East 475 547 33,000  Level Boston Center
05:16PM 42.2506 -70.1653 68° East 475 547 33,000  Level Boston Center
05:17PM 42.3114 -69.9833 66° East 480 552 33,000  Level Boston Center
05:18PM 42.3539 -69.8328 69° East 480 552 33,000  Level Boston Center
05:19PM 42.4019 -69.6706 68° East 475 547 33,000  Level Boston Center
05:20PM 42.4500 -69.5053 68° East 470 541 33,000  Level Boston Center
05:21PM 42.4978 -69.3367 69° East 475 547 33,000  Level Boston Center
05:22PM 42.5472 -69.1708 68° East 475 547 33,000  Level Boston Center
05:23PM 42.5981 -68.9903 69° East 460 529 33,000  Level Boston Center
05:24PM 42.6472 -68.8267 68° East 460 529 33,000  Level Boston Center
05:25PM 42.6847 -68.6944 69° East 460 529 33,000  Level Boston Center
05:25PM 42.7000 -68.5500 82° East 470 541 33,000  Level Moncton Center
05:26PM 42.7667 -68.4000 59° Northeast 470 541 33,000  Level Moncton Center
05:27PM 42.8000 -68.2167 76° East 470 541 33,000  Level Moncton Center
05:28PM 42.8333 -68.0667 73° East 470 541 33,000  Level Moncton Center
05:29PM 42.9000 -67.8833 64° Northeast 480 552 33,000  Level Moncton Center
05:30PM 42.9333 -67.7000 76° East 480 552 33,000  Level Moncton Center
05:31PM 42.9839 -67.6169 50° Northeast 477 549 33,000  Level Boston Center
05:32PM 43.0308 -67.4456 69° East 477 549 33,000  Level Boston Center
05:33PM 43.0772 -67.2711 70° East 477 549 33,000  Level Boston Center
05:34PM 43.1236 -67.0992 70° East 477 549 33,000  Level Boston Center
05:35PM 43.1833 -66.8500 72° East 480 552 33,000  Level Moncton Center
05:36PM 43.2667 -66.6833 55° Northeast 480 552 33,000  Level Moncton Center
05:37PM 43.3167 -66.5333 65° Northeast 490 564 33,000  Level Moncton Center
05:38PM 43.3833 -66.3500 63° Northeast 480 552 33,000  Level Moncton Center
05:39PM 43.4333 -66.2000 65° Northeast 490 564 33,000  Level Moncton Center
05:40PM 43.5000 -66.0333 61° Northeast 490 564 33,000  Level Moncton Center
05:41PM 43.5833 -65.8667 55° Northeast 490 564 33,000  Level Moncton Center
05:42PM 43.6500 -65.6833 63° Northeast 490 564 33,000  Level Moncton Center
05:43PM 43.7000 -65.5333 65° Northeast 490 564 33,000  Level Moncton Center
05:44PM 43.7667 -65.3500 63° Northeast 490 564 33,000  Level Moncton Center
05:45PM 43.8333 -65.1833 61° Northeast 490 564 33,000  Level Moncton Center
05:46PM 43.8833 -65.0167 67° East 490 564 33,000  Level Moncton Center
05:47PM 43.9500 -64.8667 58° Northeast 490 564 33,000  Level Moncton Center
05:48PM 44.0000 -64.7000 67° East 490 564 33,000  Level Moncton Center
05:49PM 44.0667 -64.5167 63° Northeast 490 564 33,000  Level Moncton Center
05:50PM 44.1333 -64.3500 61° Northeast 490 564 33,000  Level Moncton Center
05:51PM 44.2000 -64.1667 63° Northeast 490 564 33,000  Level Moncton Center
05:52PM 44.2500 -64.0000 67° East 490 564 33,000  Level Moncton Center
05:53PM 44.3167 -63.8333 61° Northeast 490 564 33,000  Level Moncton Center
05:54PM 44.3667 -63.6667 67° East 490 564 33,000  Level Moncton Center
05:55PM 44.4333 -63.4833 63° Northeast 490 564 33,000  Level Moncton Center
05:56PM 44.5000 -63.3167 61° Northeast 490 564 33,000  Level Moncton Center
05:57PM 44.5500 -63.1500 67° East 490 564 33,000  Level Moncton Center
05:58PM 44.6167 -62.9833 61° Northeast 490 564 33,000  Level Moncton Center
05:59PM 44.6833 -62.8000 63° Northeast 490 564 33,000  Level Moncton Center
06:00PM 44.7167 -62.6333 74° East 490 564 33,000  Level Moncton Center
06:01PM 44.7833 -62.4333 65° Northeast 490 564 33,000  Level Moncton Center
06:02PM 44.8500 -62.2667 61° Northeast 490 564 33,000  Level Moncton Center
06:03PM 44.8833 -62.1833 61° Northeast 500 575 33,000  Level Gander Center
06:04PM 44.9333 -61.9833 70° East 500 575 33,000  Level Gander Center
06:05PM 45.0167 -61.8000 57° Northeast 500 575 33,000  Level Gander Center
06:06PM 45.0667 -61.6333 67° East 500 575 33,000  Level Gander Center
06:07PM 45.1333 -61.4500 63° Northeast 500 575 33,000  Level Gander Center
06:08PM 45.1833 -61.2833 67° East 500 575 33,000  Level Gander Center
06:09PM 45.2500 -61.1000 63° Northeast 500 575 33,000  Level Gander Center
06:10PM 45.3000 -60.9333 67° East 500 575 33,000  Level Gander Center
06:11PM 45.3667 -60.7333 65° Northeast 500 575 33,000  Level Gander Center
06:12PM 45.4000 -60.5500 75° East 500 575 33,000  Level Gander Center
06:13PM 45.4667 -60.3500 65° Northeast 500 575 33,000  Level Gander Center
06:14PM 45.5167 -60.1833 67° East 500 575 33,000  Level Gander Center
06:15PM 45.5667 -60.0000 69° East 500 575 33,000  Level Gander Center
06:16PM 45.6333 -59.8333 60° Northeast 500 575 33,000  Level Gander Center
06:17PM 45.6833 -59.6333 70° East 510 587 33,000  Level Gander Center
06:18PM 45.7500 -59.4333 64° Northeast 510 587 33,000  Level Gander Center
06:19PM 45.8000 -59.2667 67° East 520 598 33,000  Level Gander Center
06:20PM 45.8500 -59.0500 72° East 520 598 33,000  Level Gander Center
06:21PM 45.9167 -58.8833 60° Northeast 530 610 33,000  Level Gander Center
06:22PM 45.9833 -58.6667 66° East 540 621 33,000  Level Gander Center
06:23PM 46.0167 -58.4667 76° East 540 621 33,000  Level Gander Center
06:24PM 46.0833 -58.2667 64° Northeast 550 633 33,000  Level Gander Center
06:25PM 46.1500 -58.0833 62° Northeast 550 633 33,000  Level Gander Center
06:26PM 46.2000 -57.8500 73° East 550 633 33,000  Level Gander Center
06:27PM 46.2500 -57.6667 68° East 550 633 33,000  Level Gander Center
06:28PM 46.3333 -57.4333 63° Northeast 550 633 33,000  Level Gander Center
06:29PM 46.3667 -57.2500 75° East 550 633 33,000  Level Gander Center
06:30PM 46.4333 -57.0500 64° Northeast 540 621 33,000  Level Gander Center
06:31PM 46.4833 -56.8500 70° East 540 621 33,000  Level Gander Center
06:32PM 46.5333 -56.6500 70° East 530 610 33,000  Level Gander Center
06:33PM 46.5833 -56.4500 70° East 530 610 33,000 300 Level Gander Center
06:34PM 46.6333 -56.2167 73° East 540 621 33,700 480 Climbing Gander Center
06:35PM 46.6833 -56.0167 70° East 550 633 34,000 120 Climbing Gander Center
06:36PM 46.7500 -55.8167 64° Northeast 550 633 34,000  Level Gander Center
06:37PM 46.7833 -55.6000 77° East 540 621 34,000  Level Gander Center
06:38PM 46.8333 -55.4000 70° East 540 621 34,000  Level Gander Center
06:39PM 46.8833 -55.2000 70° East 530 610 34,000  Level Gander Center
06:40PM 46.9333 -55.0000 70° East 540 621 34,000  Level Gander Center
06:41PM 46.9667 -54.8000 76° East 540 621 34,000  Level Gander Center
06:42PM 47.0333 -54.5667 67° East 540 621 34,000  Level Gander Center
06:43PM 47.0833 -54.3667 70° East 540 621 34,000  Level Gander Center
06:44PM 47.1333 -54.1500 71° East 550 633 34,000  Level Gander Center
06:45PM 47.1667 -53.9333 77° East 550 633 34,000  Level Gander Center
06:46PM 47.2167 -53.7333 70° East 550 633 34,000  Level Gander Center
06:47PM 47.2833 -53.5167 66° East 550 633 34,000  Level Gander Center
06:48PM 47.3167 -53.3000 77° East 550 633 34,000  Level Gander Center
06:49PM 47.3667 -53.0833 71° East 550 633 34,000  Level Gander Center
06:50PM 47.4167 -52.8833 70° East 550 633 34,000  Level Gander Center
06:51PM 47.4500 -52.6500 78° East 550 633 34,000  Level Gander Center
06:52PM 47.5000 -52.4500 70° East 550 633 34,000  Level Gander Center
06:53PM 47.5500 -52.2167 72° East 540 621 34,000  Level Gander Center
06:54PM 47.5833 -52.0333 75° East 540 621 34,000  Level Gander Center
06:55PM 47.6333 -51.8000 72° East 540 621 34,000  Level Gander Center
06:56PM 47.6833 -51.5833 71° East 540 621 34,000  Level Gander Center
06:57PM 47.7000 -51.3667 83° East 540 621 34,000  Level Gander Center
06:58PM 47.7500 -51.1500 71° East 540 621 34,000  Level Gander Center
06:59PM 47.7833 -50.9500 76° East 540 621 34,000  Level Gander Center
07:00PM 47.8333 -50.7333 71° East 540 621 34,000  Level Gander Center
07:01PM 47.8833 -50.5167 71° East 540 621 34,000  Level Gander Center
07:02PM 47.9167 -50.2833 78° East 540 621 34,000  Level Gander Center
07:03PM 47.9500 -50.0833 76° East 540 621 34,000  Level Gander Center
07:04PM 48.0000 -49.8667 71° East 540 621 34,000  Level Gander Center
07:05PM 48.0500 -49.6500 71° East 540 621 34,000  Level Gander Center
07:06PM 48.0833 -49.4500 76° East 540 621 34,000  Level Gander Center
07:07PM 48.1333 -49.2333 71° East 540 621 34,000  Level Gander Center
07:08PM 48.2000 -49.0167 65° Northeast 540 621 34,000  Level Gander Center
07:09PM 48.2333 -48.8000 77° East 540 621 34,000  Level Gander Center
07:10PM 48.2833 -48.5833 71° East 540 621 34,000  Level Gander Center
07:11PM 48.3500 -48.3667 65° Northeast 540 621 34,000  Level Gander Center
07:12PM 48.3833 -48.1833 75° East 540 621 34,000  Level Gander Center
07:13PM 48.4500 -47.9667 65° Northeast 540 621 34,000  Level Gander Center
07:14PM 48.4833 -47.7500 77° East 540 621 34,000  Level Gander Center
07:15PM 48.5333 -47.5333 71° East 540 621 34,000  Level Gander Center
07:16PM 48.5833 -47.3167 71° East 540 621 34,000  Level Gander Center
07:17PM 48.6333 -47.1167 69° East 540 621 34,000  Level Gander Center
07:21PM 48.7068 -46.7933 71° East  Level FlightAware Approximate
07:28PM 49.0027 -45.4388 71° East  Level FlightAware Approximate
07:29PM 49.0437 -45.2440 72° East  Level FlightAware Approximate
07:30PM 49.0843 -45.0488 72° East  Level FlightAware Approximate
07:31PM 49.1246 -44.8534 72° East  Level FlightAware Approximate
07:32PM 49.1646 -44.6576 73° East  Level FlightAware Approximate
07:33PM 49.2043 -44.4616 73° East  Level FlightAware Approximate
07:34PM 49.2436 -44.2652 73° East  Level FlightAware Approximate
07:35PM 49.2826 -44.0685 73° East  Level FlightAware Approximate
07:36PM 49.3212 -43.8714 73° East  Level FlightAware Approximate
07:37PM 49.3595 -43.6741 73° East  Level FlightAware Approximate
07:38PM 49.3975 -43.4765 73° East  Level FlightAware Approximate
07:39PM 49.4352 -43.2786 74° East  Level FlightAware Approximate
07:40PM 49.4725 -43.0803 74° East  Level FlightAware Approximate
07:41PM 49.5094 -42.8818 74° East  Level FlightAware Approximate
07:42PM 49.5460 -42.6830 74° East  Level FlightAware Approximate
07:43PM 49.5823 -42.4838 74° East  Level FlightAware Approximate
07:44PM 49.6182 -42.2844 74° East  Level FlightAware Approximate
07:45PM 49.6529 -42.0897 75° East  Level FlightAware Approximate
07:46PM 49.6870 -41.8949 75° East  Level FlightAware Approximate
07:47PM 49.7208 -41.6999 75° East  Level FlightAware Approximate
07:48PM 49.7543 -41.5046 75° East  Level FlightAware Approximate
07:49PM 49.7875 -41.3090 75° East  Level FlightAware Approximate
07:50PM 49.8204 -41.1132 75° East  Level FlightAware Approximate
07:51PM 49.8529 -40.9171 76° East  Level FlightAware Approximate
07:52PM 49.8851 -40.7207 76° East  Level FlightAware Approximate
07:53PM 49.9169 -40.5241 76° East  Level FlightAware Approximate
07:54PM 49.9484 -40.3273 76° East  Level FlightAware Approximate
07:55PM 49.9796 -40.1301 76° East  Level FlightAware Approximate
07:56PM 50.0163 -39.9356 69° East  Level FlightAware Approximate
07:57PM 50.0638 -39.7462 69° East  Level FlightAware Approximate
07:58PM 50.1111 -39.5565 69° East  Level FlightAware Approximate
07:59PM 50.1580 -39.3663 69° East  Level FlightAware Approximate
08:00PM 50.2047 -39.1759 69° East  Level FlightAware Approximate
08:01PM 50.2510 -38.9850 69° East  Level FlightAware Approximate
08:02PM 50.2970 -38.7938 69° East  Level FlightAware Approximate
08:03PM 50.3427 -38.6022 69° East  Level FlightAware Approximate
08:04PM 50.3880 -38.4102 70° East  Level FlightAware Approximate
08:05PM 50.4331 -38.2179 70° East  Level FlightAware Approximate
08:06PM 50.4778 -38.0252 70° East  Level FlightAware Approximate
08:07PM 50.5222 -37.8321 70° East  Level FlightAware Approximate
08:08PM 50.5663 -37.6387 70° East  Level FlightAware Approximate
08:09PM 50.6101 -37.4449 70° East  Level FlightAware Approximate
08:10PM 50.6536 -37.2508 70° East  Level FlightAware Approximate
08:11PM 50.6967 -37.0563 71° East  Level FlightAware Approximate
08:12PM 50.7395 -36.8614 71° East  Level FlightAware Approximate
08:13PM 50.7820 -36.6662 71° East  Level FlightAware Approximate
08:14PM 50.8241 -36.4706 71° East  Level FlightAware Approximate
08:15PM 50.8660 -36.2747 71° East  Level FlightAware Approximate
08:16PM 50.9075 -36.0784 71° East  Level FlightAware Approximate
08:17PM 50.9486 -35.8818 72° East  Level FlightAware Approximate
08:18PM 50.9895 -35.6848 72° East  Level FlightAware Approximate
08:19PM 51.0300 -35.4875 72° East  Level FlightAware Approximate
08:20PM 51.0702 -35.2899 72° East  Level FlightAware Approximate
08:21PM 51.1100 -35.0919 72° East  Level FlightAware Approximate
08:22PM 51.1495 -34.8935 72° East  Level FlightAware Approximate
08:23PM 51.1887 -34.6948 72° East  Level FlightAware Approximate
08:24PM 51.2275 -34.4958 73° East  Level FlightAware Approximate
08:25PM 51.2660 -34.2965 73° East  Level FlightAware Approximate
08:26PM 51.3042 -34.0968 73° East  Level FlightAware Approximate
08:27PM 51.3420 -33.8968 73° East  Level FlightAware Approximate
08:28PM 51.3795 -33.6964 73° East  Level FlightAware Approximate
08:29PM 51.4166 -33.4958 73° East  Level FlightAware Approximate
08:30PM 51.4534 -33.2948 74° East  Level FlightAware Approximate
08:31PM 51.4898 -33.0935 74° East  Level FlightAware Approximate
08:32PM 51.5259 -32.8918 74° East  Level FlightAware Approximate
08:33PM 51.5617 -32.6899 74° East  Level FlightAware Approximate
08:34PM 51.5971 -32.4876 74° East  Level FlightAware Approximate
08:35PM 51.6321 -32.2850 74° East  Level FlightAware Approximate
08:36PM 51.6668 -32.0821 75° East  Level FlightAware Approximate
08:37PM 51.7012 -31.8789 75° East  Level FlightAware Approximate
08:38PM 51.7352 -31.6754 75° East  Level FlightAware Approximate
08:39PM 51.7689 -31.4716 75° East  Level FlightAware Approximate
08:40PM 51.8022 -31.2675 75° East  Level FlightAware Approximate
08:41PM 51.8351 -31.0630 75° East  Level FlightAware Approximate
08:42PM 51.8677 -30.8583 75° East  Level FlightAware Approximate
08:43PM 51.8999 -30.6533 76° East  Level FlightAware Approximate
08:44PM 51.9318 -30.4480 76° East  Level FlightAware Approximate
08:45PM 51.9633 -30.2424 76° East  Level FlightAware Approximate
08:46PM 51.9945 -30.0365 76° East  Level FlightAware Approximate
08:47PM 52.0073 -29.8259 86° East  Level FlightAware Approximate
08:48PM 52.0157 -29.6142 86° East  Level FlightAware Approximate
08:49PM 52.0238 -29.4024 86° East  Level FlightAware Approximate
08:50PM 52.0316 -29.1905 87° East  Level FlightAware Approximate
08:51PM 52.0389 -28.9786 87° East  Level FlightAware Approximate
08:52PM 52.0459 -28.7666 87° East  Level FlightAware Approximate
08:53PM 52.0524 -28.5545 87° East  Level FlightAware Approximate
08:54PM 52.0586 -28.3424 87° East  Level FlightAware Approximate
08:55PM 52.0645 -28.1302 87° East  Level FlightAware Approximate
08:56PM 52.0699 -27.9179 88° East  Level FlightAware Approximate
08:57PM 52.0750 -27.7056 88° East  Level FlightAware Approximate
08:58PM 52.0796 -27.4933 88° East  Level FlightAware Approximate
08:59PM 52.0839 -27.2809 88° East  Level FlightAware Approximate
09:00PM 52.0878 -27.0685 88° East  Level FlightAware Approximate
09:01PM 52.0914 -26.8560 88° East  Level FlightAware Approximate
09:02PM 52.0945 -26.6435 89° East  Level FlightAware Approximate
09:03PM 52.0973 -26.4310 89° East  Level FlightAware Approximate
09:04PM 52.0997 -26.2185 89° East  Level FlightAware Approximate
09:05PM 52.1017 -26.0059 89° East  Level FlightAware Approximate
09:06PM 52.1033 -25.7933 89° East  Level FlightAware Approximate
09:07PM 52.1045 -25.5807 89° East  Level FlightAware Approximate
09:08PM 52.1054 -25.3681 90° East  Level FlightAware Approximate
09:09PM 52.1058 -25.1555 90° East  Level FlightAware Approximate
09:10PM 52.1059 -24.9429 90° East  Level FlightAware Approximate
09:11PM 52.1056 -24.7303 90° East  Level FlightAware Approximate
09:12PM 52.1049 -24.5177 90° East  Level FlightAware Approximate
09:13PM 52.1039 -24.3051 90° East  Level FlightAware Approximate
09:14PM 52.1025 -24.0925 91° East  Level FlightAware Approximate
09:15PM 52.1006 -23.8799 91° East  Level FlightAware Approximate
09:16PM 52.0984 -23.6674 91° East  Level FlightAware Approximate
09:17PM 52.0958 -23.4549 91° East  Level FlightAware Approximate
09:18PM 52.0929 -23.2424 91° East  Level FlightAware Approximate
09:19PM 52.0895 -23.0299 91° East  Level FlightAware Approximate
09:20PM 52.0858 -22.8174 92° East  Level FlightAware Approximate
09:21PM 52.0817 -22.6050 92° East  Level FlightAware Approximate
09:22PM 52.0772 -22.3927 92° East  Level FlightAware Approximate
09:23PM 52.0723 -22.1804 92° East  Level FlightAware Approximate
09:24PM 52.0670 -21.9681 92° East  Level FlightAware Approximate
09:25PM 52.0614 -21.7559 92° East  Level FlightAware Approximate
09:26PM 52.0554 -21.5437 93° East  Level FlightAware Approximate
09:27PM 52.0490 -21.3316 93° East  Level FlightAware Approximate
09:28PM 52.0422 -21.1196 93° East  Level FlightAware Approximate
09:29PM 52.0350 -20.9076 93° East  Level FlightAware Approximate
09:30PM 52.0275 -20.6957 93° East  Level FlightAware Approximate
09:31PM 52.0195 -20.4839 93° East  Level FlightAware Approximate
09:32PM 52.0112 -20.2721 94° East  Level FlightAware Approximate
09:33PM 52.0025 -20.0605 94° East  Level FlightAware Approximate
09:34PM 52.0166 -19.8508 80° East  Level FlightAware Approximate
09:35PM 52.0396 -19.6419 80° East  Level FlightAware Approximate
09:36PM 52.0622 -19.4327 80° East  Level FlightAware Approximate
09:37PM 52.0844 -19.2234 80° East  Level FlightAware Approximate
09:38PM 52.1063 -19.0138 80° East  Level FlightAware Approximate
09:39PM 52.1278 -18.8040 80° East  Level FlightAware Approximate
09:40PM 52.1489 -18.5941 81° East  Level FlightAware Approximate
09:41PM 52.1696 -18.3839 81° East  Level FlightAware Approximate
09:42PM 52.1900 -18.1735 81° East  Level FlightAware Approximate
09:43PM 52.2100 -17.9630 81° East  Level FlightAware Approximate
09:44PM 52.2296 -17.7523 81° East  Level FlightAware Approximate
09:45PM 52.2488 -17.5413 81° East  Level FlightAware Approximate
09:46PM 52.2677 -17.3302 82° East  Level FlightAware Approximate
09:47PM 52.2862 -17.1189 82° East  Level FlightAware Approximate
09:48PM 52.3043 -16.9075 82° East  Level FlightAware Approximate
09:49PM 52.3220 -16.6958 82° East  Level FlightAware Approximate
09:50PM 52.3394 -16.4840 82° East  Level FlightAware Approximate
09:51PM 52.3563 -16.2721 82° East  Level FlightAware Approximate
09:52PM 52.3729 -16.0600 83° East  Level FlightAware Approximate
09:53PM 52.3891 -15.8477 83° East  Level FlightAware Approximate
09:54PM 52.4050 -15.6353 83° East  Level FlightAware Approximate
09:55PM 52.4204 -15.4227 83° East  Level FlightAware Approximate
09:56PM 52.4355 -15.2099 83° East  Level FlightAware Approximate
09:57PM 52.4502 -14.9971 83° East  Level FlightAware Approximate
09:58PM 52.4651 -14.7842 83° East  Level FlightAware Approximate
09:59PM 52.4797 -14.5711 84° East  Level FlightAware Approximate
10:00PM 52.4941 -14.3580 84° East  Level FlightAware Approximate
10:01PM 52.5081 -14.1447 84° East  Level FlightAware Approximate
10:02PM 52.5219 -13.9313 84° East  Level FlightAware Approximate
10:03PM 52.5352 -13.7177 84° East  Level FlightAware Approximate
10:04PM 52.5481 -13.5041 84° East  Level FlightAware Approximate
10:05PM 52.5606 -13.2903 84° East  Level FlightAware Approximate
10:06PM 52.5728 -13.0764 85° East  Level FlightAware Approximate
10:07PM 52.5846 -12.8624 85° East  Level FlightAware Approximate
10:08PM 52.5960 -12.6482 85° East  Level FlightAware Approximate
10:09PM 52.6070 -12.4340 85° East  Level FlightAware Approximate
10:10PM 52.6176 -12.2196 85° East  Level FlightAware Approximate
10:11PM 52.6278 -12.0052 85° East  Level FlightAware Approximate
10:12PM 52.6377 -11.7906 86° East  Level FlightAware Approximate
10:13PM 52.6471 -11.5760 86° East  Level FlightAware Approximate
10:14PM 52.6562 -11.3612 86° East  Level FlightAware Approximate
10:15PM 52.6649 -11.1464 86° East  Level FlightAware Approximate
10:16PM 52.6732 -10.9315 86° East  Level FlightAware Approximate
10:17PM 52.6811 -10.7165 86° East  Level FlightAware Approximate
10:18PM 52.6886 -10.5014 87° East  Level FlightAware Approximate
10:19PM 52.6957 -10.2863 87° East  Level FlightAware Approximate
10:20PM 52.7024 -10.0711 87° East  Level FlightAware Approximate
10:21PM 52.7088 -9.8558 87° East  Level FlightAware Approximate
10:22PM 52.7147 -9.6405 87° East  Level FlightAware Approximate
10:23PM 52.7203 -9.4251 87° East  Level FlightAware Approximate
10:24PM 52.7254 -9.2097 88° East  Level FlightAware Approximate
10:25PM 52.7302 -8.9942 88° East  Level FlightAware Approximate
10:26PM 52.7346 -8.7787 88° East  Level FlightAware Approximate
10:27PM 52.7386 -8.5631 88° East  Level FlightAware Approximate
10:28PM 52.7422 -8.3475 88° East  Level FlightAware Approximate
10:29PM 52.7454 -8.1318 89° East  Level FlightAware Approximate
10:30PM 52.7483 -7.9161 89° East  Level FlightAware Approximate
10:31PM 52.7505 -7.7004 89° East  Level FlightAware Approximate
10:32PM 52.7520 -7.4847 89° East  Level FlightAware Approximate
10:33PM 52.7532 -7.2689 89° East  Level FlightAware Approximate
10:34PM 52.7539 -7.0532 90° East  Level FlightAware Approximate
10:35PM 52.7542 -6.8374 90° East  Level FlightAware Approximate
10:36PM 52.7541 -6.6217 90° East  Level FlightAware Approximate
10:37PM 52.7537 -6.4059 90° East  Level FlightAware Approximate
10:38PM 52.7528 -6.1901 90° East  Level FlightAware Approximate
10:39PM 52.7516 -5.9744 90° East  Level FlightAware Approximate
10:40PM 52.7500 -5.7600 90° East  Level FlightAware Approximate
10:41PM 52.7500 -5.5455 90° East  Level FlightAware Approximate
10:42PM 52.7463 -5.3312 92° East  Level FlightAware Approximate
10:43PM 52.7411 -5.1170 92° East  Level FlightAware Approximate
10:44PM 52.7356 -4.9028 92° East  Level FlightAware Approximate
10:45PM 52.7336 -4.6885 90° East  Level FlightAware Approximate
10:46PM 52.7338 -4.4742 90° East  Level FlightAware Approximate
10:47PM 52.7336 -4.2598 90° East  Level FlightAware Approximate
10:48PM 52.7324 -4.0455 91° East  Level FlightAware Approximate
10:49PM 52.7300 -3.8311 91° East  Level FlightAware Approximate
10:50PM 52.7272 -3.6169 91° East  Level FlightAware Approximate
10:51PM 52.7240 -3.4026 91° East  Level FlightAware Approximate
10:52PM 52.7205 -3.1884 91° East  Level FlightAware Approximate
10:53PM 52.7167 -2.9742 90° East  Level FlightAware Approximate
10:54PM 52.7167 -2.7599 90° East  Level FlightAware Approximate
10:55PM 52.7022 -2.5471 97° East  Level FlightAware Approximate
10:56PM 52.6974 -2.3332 91° East  Level FlightAware Approximate
10:57PM 52.6940 -2.1191 91° East  Level FlightAware Approximate
10:58PM 52.6901 -1.9050 92° East  Level FlightAware Approximate
10:59PM 52.6860 -1.6910 92° East  Level FlightAware Approximate
11:00PM 52.6798 -1.4771 94° East  Level FlightAware Approximate
11:01PM 52.6710 -1.2635 94° East  Level FlightAware Approximate
11:02PM 52.6619 -1.0500 94° East  Level FlightAware Approximate
11:03PM 52.6524 -0.8366 94° East  Level FlightAware Approximate
11:04PM 52.6425 -0.6233 94° East  Level FlightAware Approximate
11:05PM 52.6334 -0.4100 90° East  Level FlightAware Approximate
11:06PM 52.6316 -0.1963 94° East  Level FlightAware Approximate
11:07PM 52.6214 0.0169 94° East  Level FlightAware Approximate
11:08PM 52.6109 0.2300 95° East  Level FlightAware Approximate
11:09PM 52.5999 0.4429 95° East  Level FlightAware Approximate
11:10PM 52.5886 0.6558 95° East  Level FlightAware Approximate
11:11PM 52.5769 0.8685 95° East  Level FlightAware Approximate
11:12PM 52.5648 1.0812 95° East  Level FlightAware Approximate
11:13PM 52.5524 1.2937 95° East  Level FlightAware Approximate
11:14PM 52.5386 1.5059 96° East  Level FlightAware Approximate
11:15PM 52.5238 1.7179 97° East  Level FlightAware Approximate
11:16PM 52.5167 1.9305 90° East  Level FlightAware Approximate
11:17PM 52.4949 2.1407 100° East  Level FlightAware Approximate
11:18PM 52.4815 2.3520 99° East  Level FlightAware Approximate
11:19PM 52.4622 2.5626 97° East  Level FlightAware Approximate
11:20PM 52.4471 2.7742 97° East  Level FlightAware Approximate
11:21PM 52.4321 2.9857 96° East  Level FlightAware Approximate
11:22PM 52.4177 3.1972 96° East  Level FlightAware Approximate
11:23PM 52.4029 3.4086 96° East  Level FlightAware Approximate
11:24PM 52.3901 3.6203 95° East  Level FlightAware Approximate
11:25PM 52.3741 3.8312 99° East  Level FlightAware Approximate
11:26PM 52.3541 4.0413 99° East  Level FlightAware Approximate
11:27PM 52.3423 4.2523 98° East  Level FlightAware Approximate
11:28PM 52.3213 4.4605 108° East  Level FlightAware Approximate
11:29PM 52.3100 4.6705 102° East  Level FlightAware Approximate
11:30PM 52.3000 4.7500 102° East  Level FlightAware Approximate